Terminal Aerodrome Forecast
Issued by NWS Wilmington, OH

Current Version | Previous Version | Text Only | Print | Product List | Glossary Off
Versions: 1 2 3 4 5 6 7 8 9 10 11 12 13 14 15 16 17 18 19 20 21 22 23 24 25

780
FTUS41 KILN 230114 AAA
TAFDAY
TAF AMD
KDAY 230114Z 2301/2324 19005KT P6SM BKN040
     FM230800 20006KT 5SM BR VCSH OVC015
     FM231200 22005KT 2SM BR VCSH OVC010
     FM231500 22006KT 5SM BR OVC012
     FM232200 16006KT P6SM BKN035=

USA.gov is the U.S. government's official web portal to all federal, state and local government web resources and services.